createdAt,value
2022-11-01T00:01:21.623Z,100.00
2022-11-01T00:03:48.223Z,100.00
2022-11-01T00:06:14.763Z,100.00
2022-11-01T00:08:41.313Z,100.00
2022-11-01T00:11:12.200Z,100.00
2022-11-01T00:13:38.733Z,100.00
2022-11-01T00:16:05.648Z,100.00
2022-11-01T00:18:32.421Z,100.00
2022-11-01T00:20:59.020Z,100.00
2022-11-01T00:23:25.571Z,100.00
2022-11-01T00:25:52.114Z,100.00
2022-11-01T00:28:18.731Z,100.00
2022-11-01T00:30:45.387Z,100.00
2022-11-01T00:33:11.953Z,100.00
2022-11-01T00:35:38.544Z,100.00
2022-11-01T00:38:06.174Z,100.00
2022-11-01T00:40:33.143Z,100.00
2022-11-01T00:42:59.978Z,100.00
2022-11-01T00:45:26.573Z,100.00
2022-11-01T00:47:53.209Z,100.00
2022-11-01T00:50:19.872Z,100.00
2022-11-01T00:52:46.687Z,100.00
2022-11-01T00:55:13.245Z,100.00
2022-11-01T00:57:39.814Z,100.00
2022-11-01T01:00:07.391Z,100.00
2022-11-01T01:02:34.046Z,100.00
2022-11-01T01:05:00.683Z,100.00
2022-11-01T01:07:27.246Z,100.00
2022-11-01T01:09:53.879Z,100.00
2022-11-01T01:12:20.587Z,100.00
2022-11-01T01:14:47.281Z,100.00
2022-11-01T01:17:13.981Z,100.00
2022-11-01T01:19:40.758Z,100.00
2022-11-01T01:22:07.731Z,100.00
2022-11-01T01:24:34.340Z,100.00
2022-11-01T01:27:00.956Z,100.00
2022-11-01T01:29:27.717Z,100.00
2022-11-01T01:31:54.301Z,100.00
2022-11-01T01:34:21.240Z,100.00
2022-11-01T01:36:48.095Z,100.00
2022-11-01T01:39:14.680Z,100.00
2022-11-01T01:41:56.131Z,100.00
2022-11-01T01:44:50.062Z,100.00
2022-11-01T01:47:37.098Z,100.00
2022-11-01T01:50:34.256Z,100.00
2022-11-01T01:53:10.604Z,100.00
2022-11-01T01:56:01.623Z,100.00
2022-11-01T01:58:32.149Z,100.00
2022-11-01T02:00:59.124Z,100.00
2022-11-01T02:03:29.901Z,100.00
2022-11-01T02:06:02.649Z,100.00
2022-11-01T02:08:29.711Z,100.00
2022-11-01T02:11:07.387Z,100.00
2022-11-01T02:13:34.683Z,100.00
2022-11-01T02:16:28.392Z,100.00
2022-11-01T02:19:46.362Z,100.00
2022-11-01T02:22:34.855Z,100.00
2022-11-01T02:25:32.193Z,100.00
2022-11-01T02:28:22.114Z,100.00
2022-11-01T02:30:51.701Z,100.00
2022-11-01T02:33:30.123Z,100.00
2022-11-01T02:36:33.867Z,100.00
2022-11-01T02:39:10.555Z,100.00
2022-11-01T02:41:45.065Z,100.00
2022-11-01T02:44:20.338Z,100.00
2022-11-01T02:47:03.023Z,100.00
2022-11-01T02:49:41.543Z,100.00
2022-11-01T02:52:12.353Z,100.00
2022-11-01T02:54:42.628Z,100.00
2022-11-01T02:57:36.389Z,100.00
2022-11-01T03:00:21.564Z,100.00
2022-11-01T03:02:54.881Z,100.00
2022-11-01T03:05:37.305Z,100.00
2022-11-01T03:08:09.507Z,100.00
2022-11-01T03:11:03.823Z,100.00
2022-11-01T03:13:57.802Z,100.00
2022-11-01T03:16:41.509Z,100.00
2022-11-01T03:19:15.233Z,100.00
2022-11-01T03:21:50.397Z,100.00
2022-11-01T03:24:26.415Z,100.00
2022-11-01T03:27:04.566Z,100.00
2022-11-01T03:29:32.025Z,100.00
2022-11-01T03:32:01.104Z,100.00
2022-11-01T03:34:27.680Z,100.00
2022-11-01T03:36:58.080Z,100.00
2022-11-01T03:39:36.809Z,100.00
2022-11-01T03:42:09.086Z,100.00
2022-11-01T03:44:41.327Z,100.00
2022-11-01T03:47:09.059Z,100.00
2022-11-01T03:49:35.669Z,100.00
2022-11-01T03:52:02.270Z,100.00
2022-11-01T03:54:29.224Z,100.00
2022-11-01T03:56:56.306Z,100.00
2022-11-01T03:59:26.250Z,100.00
2022-11-01T04:01:53.011Z,100.00
2022-11-01T04:04:19.783Z,100.00
2022-11-01T04:06:46.395Z,100.00
2022-11-01T04:09:12.967Z,100.00
2022-11-01T04:11:39.537Z,100.00
2022-11-01T04:14:24.853Z,100.00
2022-11-01T04:17:09.925Z,100.00
2022-11-01T04:19:55.329Z,100.00
2022-11-01T04:22:24.477Z,100.00
2022-11-01T04:24:51.424Z,100.00
2022-11-01T04:27:17.968Z,100.00
2022-11-01T04:29:44.515Z,100.00
2022-11-01T04:32:11.075Z,100.00
2022-11-01T04:34:43.621Z,100.00
2022-11-01T04:37:11.605Z,100.00
2022-11-01T04:39:38.271Z,100.00
2022-11-01T04:42:05.380Z,100.00
2022-11-01T04:44:32.004Z,100.00
2022-11-01T04:46:58.606Z,100.00
2022-11-01T04:49:25.209Z,100.00
2022-11-01T04:51:51.747Z,100.00
2022-11-01T04:54:18.272Z,100.00
2022-11-01T04:56:44.932Z,100.00
2022-11-01T04:59:11.487Z,100.00
2022-11-01T05:01:38.229Z,100.00
2022-11-01T05:04:04.969Z,100.00
2022-11-01T05:06:32.094Z,100.00
2022-11-01T05:08:58.655Z,100.00
2022-11-01T05:11:25.817Z,100.00
2022-11-01T05:13:52.651Z,100.00
2022-11-01T05:16:20.456Z,100.00
2022-11-01T05:18:47.975Z,100.00
2022-11-01T05:21:14.727Z,100.00
2022-11-01T05:23:41.362Z,100.00
2022-11-01T05:26:07.989Z,100.00
2022-11-01T05:28:34.825Z,100.00
2022-11-01T05:31:01.417Z,100.00
2022-11-01T05:33:28.152Z,100.00
2022-11-01T05:35:54.841Z,100.00
2022-11-01T05:38:21.437Z,100.00
2022-11-01T05:40:48.208Z,100.00
2022-11-01T05:43:14.929Z,100.00
2022-11-01T05:45:41.579Z,100.00
2022-11-01T05:48:08.425Z,100.00
2022-11-01T05:50:35.098Z,100.00
2022-11-01T05:53:08.670Z,100.00
2022-11-01T05:55:36.396Z,100.00
2022-11-01T05:58:03.455Z,100.00
2022-11-01T06:00:30.019Z,100.00
2022-11-01T06:03:00.741Z,100.00
2022-11-01T06:05:28.666Z,100.00
2022-11-01T06:07:55.544Z,100.00
2022-11-01T06:10:22.125Z,100.00
2022-11-01T06:12:48.706Z,100.00
2022-11-01T06:15:15.547Z,100.00
2022-11-01T06:17:42.130Z,100.00
2022-11-01T06:20:09.364Z,100.00
2022-11-01T06:22:36.397Z,100.00
2022-11-01T06:25:04.519Z,100.00
2022-11-01T06:27:31.154Z,100.00
2022-11-01T06:29:57.726Z,100.00
2022-11-01T06:32:24.339Z,100.00
2022-11-01T06:34:50.925Z,100.00
2022-11-01T06:37:17.548Z,100.00
2022-11-01T06:39:44.094Z,100.00
2022-11-01T06:42:10.682Z,100.00
2022-11-01T06:44:37.241Z,100.00
2022-11-01T06:47:03.931Z,100.00
2022-11-01T06:49:30.566Z,100.00
2022-11-01T06:51:57.260Z,100.00
2022-11-01T06:54:23.846Z,100.00
2022-11-01T06:56:50.423Z,100.00
2022-11-01T06:59:17.046Z,100.00
2022-11-01T07:01:44.282Z,100.00
2022-11-01T07:06:42.874Z,100.00
2022-11-01T07:09:10.307Z,100.00
2022-11-01T07:11:36.917Z,100.00
2022-11-01T07:14:03.654Z,100.00
2022-11-01T07:16:31.252Z,100.00
2022-11-01T07:18:57.928Z,100.00
2022-11-01T07:21:24.693Z,100.00
2022-11-01T07:23:53.660Z,100.00
2022-11-01T07:26:21.171Z,100.00
2022-11-01T07:28:47.868Z,100.00
2022-11-01T07:31:14.666Z,100.00
2022-11-01T07:33:41.289Z,100.00
2022-11-01T07:36:08.460Z,100.00
2022-11-01T07:38:35.081Z,100.00
2022-11-01T07:41:04.220Z,100.00
2022-11-01T07:43:31.193Z,100.00
2022-11-01T07:46:04.055Z,100.00
2022-11-01T07:48:33.808Z,100.00
2022-11-01T07:51:00.461Z,100.00
2022-11-01T07:53:27.096Z,100.00
2022-11-01T07:55:53.662Z,100.00
2022-11-01T07:58:20.225Z,100.00
2022-11-01T08:00:46.966Z,100.00
2022-11-01T08:03:16.142Z,100.00
2022-11-01T08:05:44.066Z,100.00
2022-11-01T08:08:10.683Z,100.00
2022-11-01T08:10:38.072Z,100.00
2022-11-01T08:13:09.212Z,100.00
2022-11-01T08:15:36.061Z,100.00
2022-11-01T08:18:02.959Z,100.00
2022-11-01T08:20:30.086Z,100.00
2022-11-01T08:22:57.118Z,100.00
2022-11-01T08:25:24.114Z,100.00
2022-11-01T08:27:51.148Z,100.00
2022-11-01T08:30:19.223Z,100.00
2022-11-01T08:32:45.861Z,100.00
2022-11-01T08:35:12.913Z,100.00
2022-11-01T08:37:50.253Z,100.00
2022-11-01T08:40:17.592Z,100.00
2022-11-01T08:42:44.226Z,100.00
2022-11-01T08:45:11.937Z,100.00
2022-11-01T08:47:39.503Z,100.00
2022-11-01T08:50:10.195Z,100.00
2022-11-01T08:52:37.841Z,100.00
2022-11-01T08:55:04.782Z,100.00
2022-11-01T08:57:31.362Z,100.00
2022-11-01T08:59:57.995Z,100.00
2022-11-01T09:02:24.767Z,100.00
2022-11-01T09:04:51.462Z,100.00
2022-11-01T09:07:21.037Z,100.00
2022-11-01T09:09:47.651Z,100.00
2022-11-01T09:12:14.932Z,100.00
2022-11-01T09:14:41.900Z,100.00
2022-11-01T09:17:08.624Z,100.00
2022-11-01T09:19:35.175Z,100.00
2022-11-01T09:22:01.718Z,100.00
2022-11-01T09:24:28.272Z,100.00
2022-11-01T09:26:54.893Z,100.00
2022-11-01T09:29:21.548Z,100.00
2022-11-01T09:31:52.892Z,100.00
2022-11-01T09:34:20.608Z,100.00
2022-11-01T09:36:47.744Z,100.00
2022-11-01T09:39:16.464Z,100.00
2022-11-01T09:41:47.693Z,100.00
2022-11-01T09:44:23.363Z,100.00
2022-11-01T09:46:58.024Z,100.00
2022-11-01T09:49:31.796Z,100.00
2022-11-01T09:51:58.989Z,100.00
2022-11-01T09:54:27.469Z,100.00
2022-11-01T09:57:05.598Z,100.00
2022-11-01T09:59:37.285Z,100.00
2022-11-01T10:02:26.371Z,100.00
2022-11-01T10:05:14.441Z,100.00
2022-11-01T10:08:08.695Z,100.00
2022-11-01T10:10:57.061Z,100.00
2022-11-01T10:13:36.086Z,100.00
2022-11-01T10:16:09.673Z,100.00
2022-11-01T10:18:54.898Z,100.00
2022-11-01T10:21:25.835Z,100.00
2022-11-01T10:23:56.338Z,100.00
2022-11-01T10:26:28.910Z,100.00
2022-11-01T10:29:08.867Z,100.00
2022-11-01T10:31:40.066Z,100.00
2022-11-01T10:34:13.564Z,100.00
2022-11-01T10:36:44.941Z,100.00
2022-11-01T10:39:53.501Z,100.00
2022-11-01T10:42:15.950Z,97.46
2022-11-01T10:44:48.457Z,99.00
2022-11-01T10:47:19.003Z,98.70
2022-11-01T10:50:06.033Z,96.98
2022-11-01T10:52:59.771Z,94.28
2022-11-01T10:55:32.812Z,91.98
2022-11-01T10:58:14.918Z,94.81
2022-11-01T11:00:42.932Z,94.34
2022-11-01T11:03:26.025Z,97.21
2022-11-01T11:05:54.404Z,91.70
2022-11-01T11:08:23.947Z,99.24
2022-11-01T11:10:51.125Z,99.38
2022-11-01T11:13:23.145Z,100.00
2022-11-01T11:15:56.100Z,94.36
2022-11-01T11:18:38.569Z,90.65
2022-11-01T11:21:08.593Z,88.50
2022-11-01T11:23:41.544Z,84.99
2022-11-01T11:26:16.570Z,88.81
2022-11-01T11:28:47.998Z,86.54
2022-11-01T11:31:23.015Z,87.79
2022-11-01T11:33:54.656Z,81.40
2022-11-01T11:36:29.387Z,76.54
2022-11-01T11:38:56.382Z,73.72
2022-11-01T11:41:27.381Z,69.68
2022-11-01T11:43:53.947Z,62.41
2022-11-01T11:46:26.435Z,62.16
2022-11-01T11:48:58.100Z,70.42
2022-11-01T11:51:28.637Z,69.55
2022-11-01T11:54:22.022Z,65.62
2022-11-01T11:57:07.040Z,72.56
2022-11-01T11:59:34.511Z,79.70
2022-11-01T12:02:03.757Z,80.80
2022-11-01T12:04:39.794Z,83.00
2022-11-01T12:07:11.265Z,84.01
2022-11-01T12:09:46.459Z,89.28
2022-11-01T12:12:20.167Z,92.37
2022-11-01T12:14:46.726Z,93.82
2022-11-01T12:17:25.500Z,88.33
2022-11-01T12:20:15.050Z,92.36
2022-11-01T12:22:48.456Z,94.28
2022-11-01T12:25:20.542Z,95.67
2022-11-01T12:28:02.181Z,98.79
2022-11-01T12:30:33.492Z,100.00
2022-11-01T12:33:07.152Z,100.00
2022-11-01T12:35:41.261Z,100.00
2022-11-01T12:38:32.692Z,100.00
2022-11-01T12:41:03.187Z,96.21
2022-11-01T12:43:53.404Z,97.89
2022-11-01T12:46:29.929Z,99.75
2022-11-01T12:49:19.376Z,100.00
2022-11-01T12:51:53.281Z,100.00
2022-11-01T12:54:32.484Z,99.76
2022-11-01T12:56:59.338Z,100.00
2022-11-01T12:59:33.251Z,100.00
2022-11-01T13:02:25.847Z,100.00
2022-11-01T13:05:12.999Z,95.48
2022-11-01T13:08:21.510Z,87.26
2022-11-01T13:10:49.080Z,88.66
2022-11-01T13:13:38.466Z,94.36
2022-11-01T13:16:19.218Z,89.14
2022-11-01T13:19:16.578Z,89.04
2022-11-01T13:22:03.666Z,92.12
2022-11-01T13:24:39.519Z,90.40
2022-11-01T13:27:10.110Z,90.89
2022-11-01T13:29:51.917Z,90.81
2022-11-01T13:32:30.140Z,91.92
2022-11-01T13:35:09.141Z,94.44
2022-11-01T13:37:43.721Z,93.96
2022-11-01T13:40:33.554Z,96.70
2022-11-01T13:43:08.373Z,93.47
2022-11-01T13:45:49.847Z,92.90
2022-11-01T13:48:35.367Z,98.23
2022-11-01T13:51:33.032Z,98.92
2022-11-01T13:54:17.996Z,100.00
2022-11-01T13:56:57.384Z,100.00
2022-11-01T13:59:44.522Z,99.47
2022-11-01T14:02:23.137Z,100.00
2022-11-01T14:05:13.516Z,100.00
2022-11-01T14:07:43.030Z,100.00
2022-11-01T14:10:30.509Z,100.00
2022-11-01T14:12:57.031Z,100.00
2022-11-01T14:15:25.320Z,100.00
2022-11-01T14:17:57.815Z,100.00
2022-11-01T14:20:33.255Z,100.00
2022-11-01T14:23:40.010Z,100.00
2022-11-01T14:26:19.030Z,100.00
2022-11-01T14:28:47.816Z,100.00
2022-11-01T14:31:15.999Z,100.00
2022-11-01T14:33:43.911Z,100.00
2022-11-01T14:36:12.922Z,100.00
2022-11-01T14:39:15.363Z,100.00
2022-11-01T14:41:44.749Z,100.00
2022-11-01T14:44:23.361Z,100.00
2022-11-01T14:46:54.348Z,100.00
2022-11-01T14:49:40.045Z,100.00
2022-11-01T14:52:06.565Z,100.00
2022-11-01T14:54:51.796Z,100.00
2022-11-01T14:57:21.721Z,100.00
2022-11-01T14:59:48.357Z,100.00
2022-11-01T15:02:15.088Z,100.00
2022-11-01T15:04:44.291Z,100.00
2022-11-01T15:07:29.425Z,100.00
2022-11-01T15:10:13.554Z,100.00
2022-11-01T15:13:00.408Z,100.00
2022-11-01T15:15:35.179Z,100.00
2022-11-01T15:18:06.419Z,100.00
2022-11-01T15:20:40.776Z,100.00
2022-11-01T15:23:20.150Z,100.00
2022-11-01T15:25:57.553Z,100.00
2022-11-01T15:28:32.203Z,100.00
2022-11-01T15:31:01.693Z,100.00
2022-11-01T15:33:32.708Z,100.00
2022-11-01T15:36:00.851Z,100.00
2022-11-01T15:38:28.585Z,100.00
2022-11-01T15:40:55.218Z,100.00
2022-11-01T15:43:24.068Z,100.00
2022-11-01T15:45:58.554Z,100.00
2022-11-01T15:48:29.613Z,100.00
2022-11-01T15:51:00.728Z,100.00
2022-11-01T15:53:31.400Z,100.00
2022-11-01T15:56:22.845Z,100.00
2022-11-01T15:58:52.574Z,100.00
2022-11-01T16:01:22.805Z,100.00
2022-11-01T16:03:52.399Z,100.00
2022-11-01T16:06:26.619Z,100.00
2022-11-01T16:09:00.294Z,100.00
2022-11-01T16:11:30.944Z,100.00
2022-11-01T16:14:03.258Z,100.00
2022-11-01T16:17:03.397Z,100.00
2022-11-01T16:19:45.148Z,100.00
2022-11-01T16:22:33.750Z,100.00
2022-11-01T16:25:06.546Z,100.00
2022-11-01T16:27:35.949Z,100.00
2022-11-01T16:30:08.607Z,100.00
2022-11-01T16:32:36.000Z,100.00
2022-11-01T16:35:33.999Z,100.00
2022-11-01T16:38:00.965Z,100.00
2022-11-01T16:40:32.381Z,100.00
2022-11-01T16:42:59.715Z,100.00
2022-11-01T16:45:26.291Z,100.00
2022-11-01T16:47:58.002Z,100.00
2022-11-01T16:50:25.009Z,100.00
2022-11-01T16:52:51.570Z,100.00
2022-11-01T16:55:19.593Z,100.00
2022-11-01T16:57:48.174Z,100.00
2022-11-01T17:00:15.460Z,100.00
2022-11-01T17:02:42.383Z,100.00
2022-11-01T17:05:20.945Z,100.00
2022-11-01T17:07:48.026Z,100.00
2022-11-01T17:10:20.973Z,100.00
2022-11-01T17:12:47.888Z,100.00
2022-11-01T17:15:15.654Z,100.00
2022-11-01T17:17:45.586Z,100.00
2022-11-01T17:20:16.661Z,100.00
2022-11-01T17:22:43.769Z,100.00
2022-11-01T17:25:16.309Z,100.00
2022-11-01T17:27:43.723Z,100.00
2022-11-01T17:30:10.895Z,100.00
2022-11-01T17:32:37.468Z,100.00
2022-11-01T17:35:04.616Z,100.00
2022-11-01T17:37:32.345Z,100.00
2022-11-01T17:40:00.761Z,100.00
2022-11-01T17:42:27.423Z,100.00
2022-11-01T17:44:54.061Z,100.00
2022-11-01T17:47:20.724Z,100.00
2022-11-01T17:49:47.273Z,100.00
2022-11-01T17:52:13.865Z,100.00
2022-11-01T17:54:40.668Z,100.00
2022-11-01T17:57:07.250Z,100.00
2022-11-01T17:59:33.831Z,100.00
2022-11-01T18:02:00.480Z,100.00
2022-11-01T18:04:27.146Z,100.00
2022-11-01T18:06:53.731Z,100.00
2022-11-01T18:09:25.584Z,100.00
2022-11-01T18:12:14.731Z,100.00
2022-11-01T18:15:09.250Z,100.00
2022-11-01T18:18:10.260Z,100.00
2022-11-01T18:20:55.714Z,100.00
2022-11-01T18:23:24.702Z,100.00
2022-11-01T18:25:51.572Z,100.00
2022-11-01T18:28:30.135Z,100.00
2022-11-01T18:31:02.391Z,100.00
2022-11-01T18:34:06.629Z,100.00
2022-11-01T18:36:53.325Z,100.00
2022-11-01T18:39:42.587Z,100.00
2022-11-01T18:42:09.828Z,100.00
2022-11-01T18:44:37.846Z,100.00
2022-11-01T18:47:15.392Z,100.00
2022-11-01T18:49:41.957Z,100.00
2022-11-01T18:52:13.192Z,100.00
2022-11-01T18:54:48.459Z,100.00
2022-11-01T18:57:19.043Z,100.00
2022-11-01T18:59:49.515Z,100.00
2022-11-01T19:02:28.003Z,100.00
2022-11-01T19:05:17.733Z,100.00
2022-11-01T19:08:10.139Z,100.00
2022-11-01T19:10:38.298Z,100.00
2022-11-01T19:13:12.736Z,100.00
2022-11-01T19:15:39.790Z,100.00
2022-11-01T19:18:19.083Z,100.00
2022-11-01T19:20:53.088Z,100.00
2022-11-01T19:23:36.954Z,100.00
2022-11-01T19:26:04.589Z,100.00
2022-11-01T19:28:37.108Z,100.00
2022-11-01T19:31:29.306Z,100.00
2022-11-01T19:34:00.024Z,100.00
2022-11-01T19:39:18.910Z,100.00
2022-11-01T19:41:45.898Z,100.00
2022-11-01T19:44:18.523Z,100.00
2022-11-01T19:46:45.116Z,100.00
2022-11-01T19:49:26.488Z,100.00
2022-11-01T19:52:20.941Z,100.00
2022-11-01T19:54:50.371Z,100.00
2022-11-01T19:57:30.436Z,100.00
2022-11-01T20:00:21.335Z,100.00
2022-11-01T20:02:49.994Z,100.00
2022-11-01T20:05:23.753Z,100.00
2022-11-01T20:07:50.868Z,100.00
2022-11-01T20:10:18.187Z,100.00
2022-11-01T20:12:45.051Z,100.00
2022-11-01T20:15:11.674Z,100.00
2022-11-01T20:17:38.285Z,100.00
2022-11-01T20:20:06.041Z,100.00
2022-11-01T20:22:32.640Z,100.00
2022-11-01T20:25:00.162Z,100.00
2022-11-01T20:27:26.875Z,100.00
2022-11-01T20:29:53.494Z,100.00
2022-11-01T20:32:20.049Z,100.00
2022-11-01T20:34:46.671Z,100.00
2022-11-01T20:37:29.188Z,100.00
2022-11-01T20:39:56.593Z,100.00
2022-11-01T20:42:24.231Z,100.00
2022-11-01T20:44:51.000Z,100.00
2022-11-01T20:47:17.539Z,100.00
2022-11-01T20:49:44.130Z,100.00
2022-11-01T20:52:33.727Z,100.00
2022-11-01T20:54:57.344Z,100.00
2022-11-01T20:57:28.284Z,100.00
2022-11-01T20:59:55.620Z,100.00
2022-11-01T21:02:22.626Z,100.00
2022-11-01T21:04:59.607Z,100.00
2022-11-01T21:07:29.350Z,100.00
2022-11-01T21:09:55.949Z,100.00
2022-11-01T21:12:29.030Z,100.00
2022-11-01T21:14:58.502Z,100.00
2022-11-01T21:17:25.117Z,100.00
2022-11-01T21:19:56.676Z,100.00
2022-11-01T21:22:23.189Z,100.00
2022-11-01T21:24:51.109Z,100.00
2022-11-01T21:27:26.979Z,100.00
2022-11-01T21:30:15.314Z,100.00
2022-11-01T21:32:45.017Z,100.00
2022-11-01T21:35:21.058Z,100.00
2022-11-01T21:37:50.269Z,100.00
2022-11-01T21:40:27.642Z,100.00
2022-11-01T21:42:57.965Z,100.00
2022-11-01T21:45:30.660Z,100.00
2022-11-01T21:48:19.489Z,100.00
2022-11-01T21:50:46.046Z,100.00
2022-11-01T21:53:12.779Z,100.00
2022-11-01T21:55:39.370Z,100.00
2022-11-01T21:58:05.931Z,100.00
2022-11-01T22:00:32.470Z,100.00
2022-11-01T22:02:59.025Z,100.00
2022-11-01T22:05:25.559Z,100.00
2022-11-01T22:07:52.228Z,100.00
2022-11-01T22:10:18.857Z,100.00
2022-11-01T22:12:45.430Z,100.00
2022-11-01T22:15:12.086Z,100.00
2022-11-01T22:17:38.654Z,100.00
2022-11-01T22:20:05.811Z,100.00
2022-11-01T22:22:32.381Z,100.00
2022-11-01T22:24:58.954Z,100.00
2022-11-01T22:27:25.700Z,100.00
2022-11-01T22:29:52.321Z,100.00
2022-11-01T22:32:18.891Z,100.00
2022-11-01T22:34:45.975Z,100.00
2022-11-01T22:37:13.175Z,100.00
2022-11-01T22:39:39.947Z,100.00
2022-11-01T22:42:15.187Z,100.00
2022-11-01T22:44:45.646Z,100.00
2022-11-01T22:47:26.490Z,100.00
2022-11-01T22:50:01.423Z,100.00
2022-11-01T22:52:30.686Z,100.00
2022-11-01T22:55:05.211Z,100.00
2022-11-01T22:57:34.931Z,100.00
2022-11-01T23:00:21.331Z,100.00
2022-11-01T23:02:48.065Z,100.00
2022-11-01T23:05:23.718Z,100.00
2022-11-01T23:07:54.683Z,100.00
2022-11-01T23:10:32.855Z,100.00
2022-11-01T23:13:55.542Z,100.00
2022-11-01T23:16:30.117Z,100.00
2022-11-01T23:18:59.809Z,100.00
2022-11-01T23:21:27.538Z,100.00
2022-11-01T23:23:54.683Z,100.00
2022-11-01T23:26:23.758Z,100.00
2022-11-01T23:28:54.228Z,100.00
2022-11-01T23:31:21.478Z,100.00
2022-11-01T23:33:49.589Z,100.00
2022-11-01T23:36:26.873Z,100.00
2022-11-01T23:39:14.544Z,100.00
2022-11-01T23:41:48.660Z,100.00
2022-11-01T23:44:29.464Z,100.00
2022-11-01T23:47:02.351Z,100.00
2022-11-01T23:49:31.713Z,100.00
2022-11-01T23:51:59.328Z,100.00
2022-11-01T23:54:42.088Z,100.00
2022-11-01T23:57:17.552Z,100.00
2022-11-01T23:59:44.209Z,100.00
